sensor_id;sensor_type;location;lat;lon;timestamp;temperature;humidity
58568;DHT22;44354;46.192;-1.076;2023-03-12T00:00:08;11.60;99.90
58568;DHT22;44354;46.192;-1.076;2023-03-12T00:02:35;11.60;99.90
58568;DHT22;44354;46.192;-1.076;2023-03-12T00:05:01;11.60;99.90
58568;DHT22;44354;46.192;-1.076;2023-03-12T00:07:26;11.60;99.90
58568;DHT22;44354;46.192;-1.076;2023-03-12T00:09:52;11.60;99.90
58568;DHT22;44354;46.192;-1.076;2023-03-12T00:12:17;11.60;99.90
58568;DHT22;44354;46.192;-1.076;2023-03-12T00:14:43;11.60;99.90
58568;DHT22;44354;46.192;-1.076;2023-03-12T00:17:08;11.60;99.90
58568;DHT22;44354;46.192;-1.076;2023-03-12T00:19:34;11.60;99.90
58568;DHT22;44354;46.192;-1.076;2023-03-12T00:21:59;11.60;99.90
58568;DHT22;44354;46.192;-1.076;2023-03-12T00:24:25;11.60;99.90
58568;DHT22;44354;46.192;-1.076;2023-03-12T00:26:50;11.60;99.90
58568;DHT22;44354;46.192;-1.076;2023-03-12T00:29:16;11.60;99.90
58568;DHT22;44354;46.192;-1.076;2023-03-12T00:31:41;11.60;99.90
58568;DHT22;44354;46.192;-1.076;2023-03-12T00:34:07;11.60;99.90
58568;DHT22;44354;46.192;-1.076;2023-03-12T00:36:33;11.60;99.90
58568;DHT22;44354;46.192;-1.076;2023-03-12T00:38:59;11.60;99.90
58568;DHT22;44354;46.192;-1.076;2023-03-12T00:41:25;11.60;99.90
58568;DHT22;44354;46.192;-1.076;2023-03-12T00:43:50;11.60;99.90
58568;DHT22;44354;46.192;-1.076;2023-03-12T00:46:16;11.60;99.90
58568;DHT22;44354;46.192;-1.076;2023-03-12T00:48:42;11.60;99.90
58568;DHT22;44354;46.192;-1.076;2023-03-12T00:51:09;11.60;99.90
58568;DHT22;44354;46.192;-1.076;2023-03-12T00:53:35;11.60;99.90
58568;DHT22;44354;46.192;-1.076;2023-03-12T00:56:01;11.50;99.90
58568;DHT22;44354;46.192;-1.076;2023-03-12T00:58:26;11.50;99.90
58568;DHT22;44354;46.192;-1.076;2023-03-12T01:00:52;11.60;99.90
58568;DHT22;44354;46.192;-1.076;2023-03-12T01:03:18;11.50;99.90
58568;DHT22;44354;46.192;-1.076;2023-03-12T01:05:43;11.50;99.90
58568;DHT22;44354;46.192;-1.076;2023-03-12T01:08:10;11.50;99.90
58568;DHT22;44354;46.192;-1.076;2023-03-12T01:10:36;11.50;99.90
58568;DHT22;44354;46.192;-1.076;2023-03-12T01:13:02;11.50;99.90
58568;DHT22;44354;46.192;-1.076;2023-03-12T01:15:27;11.50;99.90
58568;DHT22;44354;46.192;-1.076;2023-03-12T01:17:53;11.50;99.90
58568;DHT22;44354;46.192;-1.076;2023-03-12T01:20:19;11.50;99.90
58568;DHT22;44354;46.192;-1.076;2023-03-12T01:22:44;11.50;99.90
58568;DHT22;44354;46.192;-1.076;2023-03-12T01:25:10;11.50;99.90
58568;DHT22;44354;46.192;-1.076;2023-03-12T01:27:36;11.50;99.90
58568;DHT22;44354;46.192;-1.076;2023-03-12T01:30:02;11.40;99.90
58568;DHT22;44354;46.192;-1.076;2023-03-12T01:32:28;11.50;99.90
58568;DHT22;44354;46.192;-1.076;2023-03-12T01:34:54;11.50;99.90
58568;DHT22;44354;46.192;-1.076;2023-03-12T01:37:19;11.50;99.90
58568;DHT22;44354;46.192;-1.076;2023-03-12T01:39:45;11.50;99.90
58568;DHT22;44354;46.192;-1.076;2023-03-12T01:42:10;11.40;99.90
58568;DHT22;44354;46.192;-1.076;2023-03-12T01:47:20;11.40;99.90
58568;DHT22;44354;46.192;-1.076;2023-03-12T01:49:45;11.40;99.90
58568;DHT22;44354;46.192;-1.076;2023-03-12T01:52:13;11.40;99.90
58568;DHT22;44354;46.192;-1.076;2023-03-12T01:54:46;11.40;99.90
58568;DHT22;44354;46.192;-1.076;2023-03-12T01:57:15;11.40;99.90
58568;DHT22;44354;46.192;-1.076;2023-03-12T01:59:43;11.40;99.90
58568;DHT22;44354;46.192;-1.076;2023-03-12T02:02:11;11.40;99.90
58568;DHT22;44354;46.192;-1.076;2023-03-12T02:04:38;11.50;99.90
58568;DHT22;44354;46.192;-1.076;2023-03-12T02:07:05;11.50;99.90
58568;DHT22;44354;46.192;-1.076;2023-03-12T02:09:32;11.50;99.90
58568;DHT22;44354;46.192;-1.076;2023-03-12T02:11:58;11.50;99.90
58568;DHT22;44354;46.192;-1.076;2023-03-12T02:14:23;11.50;99.90
58568;DHT22;44354;46.192;-1.076;2023-03-12T02:16:49;11.50;99.90
58568;DHT22;44354;46.192;-1.076;2023-03-12T02:19:17;11.50;99.90
58568;DHT22;44354;46.192;-1.076;2023-03-12T02:21:44;11.50;99.90
58568;DHT22;44354;46.192;-1.076;2023-03-12T02:24:33;11.50;99.90
58568;DHT22;44354;46.192;-1.076;2023-03-12T02:26:59;11.50;99.90
58568;DHT22;44354;46.192;-1.076;2023-03-12T02:29:25;11.50;99.90
58568;DHT22;44354;46.192;-1.076;2023-03-12T02:31:53;11.50;99.90
58568;DHT22;44354;46.192;-1.076;2023-03-12T02:34:19;11.50;99.90
58568;DHT22;44354;46.192;-1.076;2023-03-12T02:36:46;11.50;99.90
58568;DHT22;44354;46.192;-1.076;2023-03-12T02:39:12;11.50;99.90
58568;DHT22;44354;46.192;-1.076;2023-03-12T02:41:39;11.50;99.90
58568;DHT22;44354;46.192;-1.076;2023-03-12T02:44:10;11.50;99.90
58568;DHT22;44354;46.192;-1.076;2023-03-12T02:46:38;11.50;99.90
58568;DHT22;44354;46.192;-1.076;2023-03-12T02:49:04;11.50;99.90
58568;DHT22;44354;46.192;-1.076;2023-03-12T02:51:30;11.50;99.90
58568;DHT22;44354;46.192;-1.076;2023-03-12T02:53:56;11.40;99.90
58568;DHT22;44354;46.192;-1.076;2023-03-12T02:56:22;11.40;99.90
58568;DHT22;44354;46.192;-1.076;2023-03-12T02:58:48;11.40;99.90
58568;DHT22;44354;46.192;-1.076;2023-03-12T03:01:14;11.40;99.90
58568;DHT22;44354;46.192;-1.076;2023-03-12T03:03:40;11.30;99.90
58568;DHT22;44354;46.192;-1.076;2023-03-12T03:06:05;11.30;99.90
58568;DHT22;44354;46.192;-1.076;2023-03-12T03:08:31;11.30;99.90
58568;DHT22;44354;46.192;-1.076;2023-03-12T03:10:56;11.30;99.90
58568;DHT22;44354;46.192;-1.076;2023-03-12T03:13:22;11.30;99.90
58568;DHT22;44354;46.192;-1.076;2023-03-12T03:15:47;11.30;99.90
58568;DHT22;44354;46.192;-1.076;2023-03-12T03:18:13;11.30;99.90
58568;DHT22;44354;46.192;-1.076;2023-03-12T03:20:38;11.30;99.90
58568;DHT22;44354;46.192;-1.076;2023-03-12T03:23:04;11.30;99.90
58568;DHT22;44354;46.192;-1.076;2023-03-12T03:25:29;11.30;99.90
58568;DHT22;44354;46.192;-1.076;2023-03-12T03:27:55;11.30;99.90
58568;DHT22;44354;46.192;-1.076;2023-03-12T03:30:20;11.30;99.90
58568;DHT22;44354;46.192;-1.076;2023-03-12T03:32:47;11.30;99.90
58568;DHT22;44354;46.192;-1.076;2023-03-12T03:35:12;11.30;99.90
58568;DHT22;44354;46.192;-1.076;2023-03-12T03:37:38;11.30;99.90
58568;DHT22;44354;46.192;-1.076;2023-03-12T03:40:03;11.30;99.90
58568;DHT22;44354;46.192;-1.076;2023-03-12T03:42:29;11.30;99.90
58568;DHT22;44354;46.192;-1.076;2023-03-12T03:44:55;11.30;99.90
58568;DHT22;44354;46.192;-1.076;2023-03-12T03:47:20;11.30;99.90
58568;DHT22;44354;46.192;-1.076;2023-03-12T03:49:46;11.30;99.90
58568;DHT22;44354;46.192;-1.076;2023-03-12T03:52:11;11.30;99.90
58568;DHT22;44354;46.192;-1.076;2023-03-12T03:54:37;11.20;99.90
58568;DHT22;44354;46.192;-1.076;2023-03-12T03:57:03;11.30;99.90
58568;DHT22;44354;46.192;-1.076;2023-03-12T03:59:28;11.30;99.90
58568;DHT22;44354;46.192;-1.076;2023-03-12T04:01:54;11.30;99.90
58568;DHT22;44354;46.192;-1.076;2023-03-12T04:04:20;11.30;99.90
58568;DHT22;44354;46.192;-1.076;2023-03-12T04:06:45;11.30;99.90
58568;DHT22;44354;46.192;-1.076;2023-03-12T04:09:11;11.30;99.90
58568;DHT22;44354;46.192;-1.076;2023-03-12T04:11:36;11.30;99.90
58568;DHT22;44354;46.192;-1.076;2023-03-12T04:14:02;11.30;99.90
58568;DHT22;44354;46.192;-1.076;2023-03-12T04:16:28;11.30;99.90
58568;DHT22;44354;46.192;-1.076;2023-03-12T04:18:53;11.30;99.90
58568;DHT22;44354;46.192;-1.076;2023-03-12T04:21:19;11.30;99.90
58568;DHT22;44354;46.192;-1.076;2023-03-12T04:23:44;11.30;99.90
58568;DHT22;44354;46.192;-1.076;2023-03-12T04:26:10;11.40;99.90
58568;DHT22;44354;46.192;-1.076;2023-03-12T04:28:36;11.30;99.90
58568;DHT22;44354;46.192;-1.076;2023-03-12T04:31:03;11.30;99.90
58568;DHT22;44354;46.192;-1.076;2023-03-12T04:33:29;11.30;99.90
58568;DHT22;44354;46.192;-1.076;2023-03-12T04:35:55;11.30;99.90
58568;DHT22;44354;46.192;-1.076;2023-03-12T04:38:21;11.30;99.90
58568;DHT22;44354;46.192;-1.076;2023-03-12T04:40:55;11.30;99.90
58568;DHT22;44354;46.192;-1.076;2023-03-12T04:43:21;11.30;99.90
58568;DHT22;44354;46.192;-1.076;2023-03-12T04:45:47;11.20;99.90
58568;DHT22;44354;46.192;-1.076;2023-03-12T04:48:13;11.20;99.90
58568;DHT22;44354;46.192;-1.076;2023-03-12T04:50:39;11.20;99.90
58568;DHT22;44354;46.192;-1.076;2023-03-12T04:53:04;11.20;99.90
58568;DHT22;44354;46.192;-1.076;2023-03-12T04:55:30;11.20;99.90
58568;DHT22;44354;46.192;-1.076;2023-03-12T04:57:55;11.20;99.90
58568;DHT22;44354;46.192;-1.076;2023-03-12T05:00:21;11.30;99.90
58568;DHT22;44354;46.192;-1.076;2023-03-12T05:02:46;11.30;99.90
58568;DHT22;44354;46.192;-1.076;2023-03-12T05:05:12;11.20;99.90
58568;DHT22;44354;46.192;-1.076;2023-03-12T05:07:38;11.30;99.90
58568;DHT22;44354;46.192;-1.076;2023-03-12T05:10:03;11.30;99.90
58568;DHT22;44354;46.192;-1.076;2023-03-12T05:12:29;11.30;99.90
58568;DHT22;44354;46.192;-1.076;2023-03-12T05:14:54;11.30;99.90
58568;DHT22;44354;46.192;-1.076;2023-03-12T05:17:20;11.30;99.90
58568;DHT22;44354;46.192;-1.076;2023-03-12T05:19:45;11.30;99.90
58568;DHT22;44354;46.192;-1.076;2023-03-12T05:22:11;11.30;99.90
58568;DHT22;44354;46.192;-1.076;2023-03-12T05:24:36;11.40;99.90
58568;DHT22;44354;46.192;-1.076;2023-03-12T05:27:02;11.40;99.90
58568;DHT22;44354;46.192;-1.076;2023-03-12T05:29:28;11.30;99.90
58568;DHT22;44354;46.192;-1.076;2023-03-12T05:32:00;11.30;99.90
58568;DHT22;44354;46.192;-1.076;2023-03-12T05:34:25;11.30;99.90
58568;DHT22;44354;46.192;-1.076;2023-03-12T05:36:52;11.30;99.90
58568;DHT22;44354;46.192;-1.076;2023-03-12T05:39:18;11.30;99.90
58568;DHT22;44354;46.192;-1.076;2023-03-12T05:41:43;11.30;99.90
58568;DHT22;44354;46.192;-1.076;2023-03-12T05:44:10;11.30;99.90
58568;DHT22;44354;46.192;-1.076;2023-03-12T05:46:36;11.30;99.90
58568;DHT22;44354;46.192;-1.076;2023-03-12T05:49:02;11.30;99.90
58568;DHT22;44354;46.192;-1.076;2023-03-12T05:51:27;11.30;99.90
58568;DHT22;44354;46.192;-1.076;2023-03-12T05:53:53;11.30;99.90
58568;DHT22;44354;46.192;-1.076;2023-03-12T05:56:18;11.30;99.90
58568;DHT22;44354;46.192;-1.076;2023-03-12T05:58:46;11.30;99.90
58568;DHT22;44354;46.192;-1.076;2023-03-12T06:01:16;11.30;99.90
58568;DHT22;44354;46.192;-1.076;2023-03-12T06:03:42;11.30;99.90
58568;DHT22;44354;46.192;-1.076;2023-03-12T06:06:08;11.20;99.90
58568;DHT22;44354;46.192;-1.076;2023-03-12T06:08:33;11.20;99.90
58568;DHT22;44354;46.192;-1.076;2023-03-12T06:10:59;11.20;99.90
58568;DHT22;44354;46.192;-1.076;2023-03-12T06:13:25;11.20;99.90
58568;DHT22;44354;46.192;-1.076;2023-03-12T06:15:52;11.20;99.90
58568;DHT22;44354;46.192;-1.076;2023-03-12T06:18:17;11.20;99.90
58568;DHT22;44354;46.192;-1.076;2023-03-12T06:20:43;11.20;99.90
58568;DHT22;44354;46.192;-1.076;2023-03-12T06:23:08;11.20;99.90
58568;DHT22;44354;46.192;-1.076;2023-03-12T06:25:34;11.20;99.90
58568;DHT22;44354;46.192;-1.076;2023-03-12T06:27:59;11.30;99.90
58568;DHT22;44354;46.192;-1.076;2023-03-12T06:30:25;11.30;99.90
58568;DHT22;44354;46.192;-1.076;2023-03-12T06:32:52;11.30;99.90
58568;DHT22;44354;46.192;-1.076;2023-03-12T06:35:17;11.30;99.90
58568;DHT22;44354;46.192;-1.076;2023-03-12T06:37:43;11.30;99.90
58568;DHT22;44354;46.192;-1.076;2023-03-12T06:40:09;11.30;99.90
58568;DHT22;44354;46.192;-1.076;2023-03-12T06:42:35;11.30;99.90
58568;DHT22;44354;46.192;-1.076;2023-03-12T06:45:01;11.20;99.90
58568;DHT22;44354;46.192;-1.076;2023-03-12T06:47:26;11.20;99.90
58568;DHT22;44354;46.192;-1.076;2023-03-12T06:49:52;11.20;99.90
58568;DHT22;44354;46.192;-1.076;2023-03-12T06:52:17;11.20;99.90
58568;DHT22;44354;46.192;-1.076;2023-03-12T06:54:43;11.20;99.90
58568;DHT22;44354;46.192;-1.076;2023-03-12T06:57:08;11.20;99.90
58568;DHT22;44354;46.192;-1.076;2023-03-12T06:59:34;11.20;99.90
58568;DHT22;44354;46.192;-1.076;2023-03-12T07:01:59;11.20;99.90
58568;DHT22;44354;46.192;-1.076;2023-03-12T07:04:25;11.30;99.90
58568;DHT22;44354;46.192;-1.076;2023-03-12T07:06:50;11.30;99.90
58568;DHT22;44354;46.192;-1.076;2023-03-12T07:09:16;11.30;99.90
58568;DHT22;44354;46.192;-1.076;2023-03-12T07:11:42;11.30;99.90
58568;DHT22;44354;46.192;-1.076;2023-03-12T07:14:08;11.30;99.90
58568;DHT22;44354;46.192;-1.076;2023-03-12T07:16:34;11.30;99.90
58568;DHT22;44354;46.192;-1.076;2023-03-12T07:19:00;11.40;99.90
58568;DHT22;44354;46.192;-1.076;2023-03-12T07:21:25;11.40;99.90
58568;DHT22;44354;46.192;-1.076;2023-03-12T07:23:51;11.40;99.90
58568;DHT22;44354;46.192;-1.076;2023-03-12T07:26:17;11.50;99.90
58568;DHT22;44354;46.192;-1.076;2023-03-12T07:28:43;11.50;99.90
58568;DHT22;44354;46.192;-1.076;2023-03-12T07:31:09;11.60;99.90
58568;DHT22;44354;46.192;-1.076;2023-03-12T07:33:34;11.60;99.90
58568;DHT22;44354;46.192;-1.076;2023-03-12T07:36:00;11.70;99.90
58568;DHT22;44354;46.192;-1.076;2023-03-12T07:38:26;11.70;99.90
58568;DHT22;44354;46.192;-1.076;2023-03-12T07:40:52;11.70;99.90
58568;DHT22;44354;46.192;-1.076;2023-03-12T07:43:18;11.80;99.90
58568;DHT22;44354;46.192;-1.076;2023-03-12T07:45:44;11.80;99.90
58568;DHT22;44354;46.192;-1.076;2023-03-12T07:48:10;11.90;99.90
58568;DHT22;44354;46.192;-1.076;2023-03-12T07:50:36;11.90;99.90
58568;DHT22;44354;46.192;-1.076;2023-03-12T07:53:02;12.00;99.90
58568;DHT22;44354;46.192;-1.076;2023-03-12T07:55:28;12.00;99.90
58568;DHT22;44354;46.192;-1.076;2023-03-12T07:57:54;12.00;99.90
58568;DHT22;44354;46.192;-1.076;2023-03-12T08:00:22;12.00;99.90
58568;DHT22;44354;46.192;-1.076;2023-03-12T08:02:48;12.00;99.90
58568;DHT22;44354;46.192;-1.076;2023-03-12T08:05:13;12.10;99.90
58568;DHT22;44354;46.192;-1.076;2023-03-12T08:07:39;12.10;99.90
58568;DHT22;44354;46.192;-1.076;2023-03-12T08:10:05;12.10;99.90
58568;DHT22;44354;46.192;-1.076;2023-03-12T08:12:31;12.10;99.90
58568;DHT22;44354;46.192;-1.076;2023-03-12T08:14:57;12.10;99.90
58568;DHT22;44354;46.192;-1.076;2023-03-12T08:17:23;12.10;99.90
58568;DHT22;44354;46.192;-1.076;2023-03-12T08:19:48;12.10;99.90
58568;DHT22;44354;46.192;-1.076;2023-03-12T08:22:14;12.10;99.90
58568;DHT22;44354;46.192;-1.076;2023-03-12T08:24:40;12.20;99.90
58568;DHT22;44354;46.192;-1.076;2023-03-12T08:27:05;12.20;99.90
58568;DHT22;44354;46.192;-1.076;2023-03-12T08:29:31;12.20;99.90
58568;DHT22;44354;46.192;-1.076;2023-03-12T08:31:58;12.20;99.90
58568;DHT22;44354;46.192;-1.076;2023-03-12T08:34:23;12.20;99.90
58568;DHT22;44354;46.192;-1.076;2023-03-12T08:36:49;12.10;99.90
58568;DHT22;44354;46.192;-1.076;2023-03-12T08:39:14;12.10;99.90
58568;DHT22;44354;46.192;-1.076;2023-03-12T08:41:40;12.00;99.90
58568;DHT22;44354;46.192;-1.076;2023-03-12T08:44:06;12.10;99.90
58568;DHT22;44354;46.192;-1.076;2023-03-12T08:46:31;12.00;99.90
58568;DHT22;44354;46.192;-1.076;2023-03-12T08:48:57;12.00;99.90
58568;DHT22;44354;46.192;-1.076;2023-03-12T08:51:22;12.10;99.90
58568;DHT22;44354;46.192;-1.076;2023-03-12T08:53:48;12.20;99.90
58568;DHT22;44354;46.192;-1.076;2023-03-12T08:56:13;12.40;99.90
58568;DHT22;44354;46.192;-1.076;2023-03-12T08:58:39;12.50;99.90
58568;DHT22;44354;46.192;-1.076;2023-03-12T09:01:08;12.50;99.90
58568;DHT22;44354;46.192;-1.076;2023-03-12T09:03:35;12.50;99.90
58568;DHT22;44354;46.192;-1.076;2023-03-12T09:06:01;12.60;99.90
58568;DHT22;44354;46.192;-1.076;2023-03-12T09:08:27;12.60;99.90
58568;DHT22;44354;46.192;-1.076;2023-03-12T09:10:59;12.60;99.90
58568;DHT22;44354;46.192;-1.076;2023-03-12T09:13:38;12.60;99.90
58568;DHT22;44354;46.192;-1.076;2023-03-12T09:16:04;12.60;99.90
58568;DHT22;44354;46.192;-1.076;2023-03-12T09:18:53;12.50;99.90
58568;DHT22;44354;46.192;-1.076;2023-03-12T09:21:23;12.70;99.90
58568;DHT22;44354;46.192;-1.076;2023-03-12T09:23:50;12.70;99.90
58568;DHT22;44354;46.192;-1.076;2023-03-12T09:26:21;12.70;99.90
58568;DHT22;44354;46.192;-1.076;2023-03-12T09:28:48;12.70;99.90
58568;DHT22;44354;46.192;-1.076;2023-03-12T09:31:18;12.60;99.90
58568;DHT22;44354;46.192;-1.076;2023-03-12T09:33:43;12.70;99.90
58568;DHT22;44354;46.192;-1.076;2023-03-12T09:36:09;12.80;99.90
58568;DHT22;44354;46.192;-1.076;2023-03-12T09:38:36;12.90;99.90
58568;DHT22;44354;46.192;-1.076;2023-03-12T09:41:03;13.10;99.90
58568;DHT22;44354;46.192;-1.076;2023-03-12T09:43:42;13.30;99.90
58568;DHT22;44354;46.192;-1.076;2023-03-12T09:46:21;13.50;99.90
58568;DHT22;44354;46.192;-1.076;2023-03-12T09:48:51;13.70;99.90
58568;DHT22;44354;46.192;-1.076;2023-03-12T09:51:44;13.60;99.90
58568;DHT22;44354;46.192;-1.076;2023-03-12T09:54:13;13.70;99.90
58568;DHT22;44354;46.192;-1.076;2023-03-12T09:56:50;13.60;99.90
58568;DHT22;44354;46.192;-1.076;2023-03-12T09:59:19;13.50;99.90
58568;DHT22;44354;46.192;-1.076;2023-03-12T10:01:50;13.50;99.90
58568;DHT22;44354;46.192;-1.076;2023-03-12T10:04:23;13.70;99.90
58568;DHT22;44354;46.192;-1.076;2023-03-12T10:12:13;13.80;99.90
58568;DHT22;44354;46.192;-1.076;2023-03-12T10:14:57;13.80;99.90
58568;DHT22;44354;46.192;-1.076;2023-03-12T10:19:55;14.00;99.90
58568;DHT22;44354;46.192;-1.076;2023-03-12T10:22:45;14.10;99.90
58568;DHT22;44354;46.192;-1.076;2023-03-12T10:25:31;14.20;99.90
58568;DHT22;44354;46.192;-1.076;2023-03-12T10:28:20;14.20;99.90
58568;DHT22;44354;46.192;-1.076;2023-03-12T10:30:52;14.20;99.90
58568;DHT22;44354;46.192;-1.076;2023-03-12T10:33:18;14.30;99.90
58568;DHT22;44354;46.192;-1.076;2023-03-12T10:35:45;14.40;99.90
58568;DHT22;44354;46.192;-1.076;2023-03-12T10:38:28;14.40;99.90
58568;DHT22;44354;46.192;-1.076;2023-03-12T10:40:53;14.60;99.90
58568;DHT22;44354;46.192;-1.076;2023-03-12T10:43:19;14.60;99.90
58568;DHT22;44354;46.192;-1.076;2023-03-12T10:48:16;14.60;99.90
58568;DHT22;44354;46.192;-1.076;2023-03-12T10:50:58;14.70;99.90
58568;DHT22;44354;46.192;-1.076;2023-03-12T10:53:28;14.50;99.90
58568;DHT22;44354;46.192;-1.076;2023-03-12T10:55:57;14.30;99.90
58568;DHT22;44354;46.192;-1.076;2023-03-12T10:58:23;14.30;99.90
58568;DHT22;44354;46.192;-1.076;2023-03-12T11:00:58;14.50;99.90
58568;DHT22;44354;46.192;-1.076;2023-03-12T11:03:28;14.50;99.90
58568;DHT22;44354;46.192;-1.076;2023-03-12T11:06:01;14.50;99.90
58568;DHT22;44354;46.192;-1.076;2023-03-12T11:08:43;14.30;99.90
58568;DHT22;44354;46.192;-1.076;2023-03-12T11:11:30;14.40;99.90
58568;DHT22;44354;46.192;-1.076;2023-03-12T11:14:18;14.30;99.90
58568;DHT22;44354;46.192;-1.076;2023-03-12T11:16:42;14.30;99.90
58568;DHT22;44354;46.192;-1.076;2023-03-12T11:19:09;14.10;99.90
58568;DHT22;44354;46.192;-1.076;2023-03-12T11:21:36;14.10;99.90
58568;DHT22;44354;46.192;-1.076;2023-03-12T11:24:13;14.00;99.90
58568;DHT22;44354;46.192;-1.076;2023-03-12T11:32:32;14.00;99.90
58568;DHT22;44354;46.192;-1.076;2023-03-12T11:35:01;14.10;99.90
58568;DHT22;44354;46.192;-1.076;2023-03-12T11:47:58;13.70;99.90
58568;DHT22;44354;46.192;-1.076;2023-03-12T11:53:25;13.60;99.90
58568;DHT22;44354;46.192;-1.076;2023-03-12T11:56:11;13.80;99.90
58568;DHT22;44354;46.192;-1.076;2023-03-12T12:09:50;13.60;99.90
58568;DHT22;44354;46.192;-1.076;2023-03-12T12:18:01;13.70;99.90
58568;DHT22;44354;46.192;-1.076;2023-03-12T12:20:40;13.70;99.90
58568;DHT22;44354;46.192;-1.076;2023-03-12T12:26:09;13.40;99.90
58568;DHT22;44354;46.192;-1.076;2023-03-12T12:29:03;13.20;99.90
58568;DHT22;44354;46.192;-1.076;2023-03-12T12:42:39;13.40;99.90
58568;DHT22;44354;46.192;-1.076;2023-03-12T12:45:12;13.50;99.90
58568;DHT22;44354;46.192;-1.076;2023-03-12T12:47:40;13.50;99.90
58568;DHT22;44354;46.192;-1.076;2023-03-12T12:50:26;13.60;99.90
58568;DHT22;44354;46.192;-1.076;2023-03-12T12:52:59;13.60;99.90
58568;DHT22;44354;46.192;-1.076;2023-03-12T12:55:32;13.70;99.90
58568;DHT22;44354;46.192;-1.076;2023-03-12T13:03:00;13.60;99.90
58568;DHT22;44354;46.192;-1.076;2023-03-12T13:10:58;13.80;99.90
58568;DHT22;44354;46.192;-1.076;2023-03-12T13:13:28;13.70;99.90
58568;DHT22;44354;46.192;-1.076;2023-03-12T13:16:15;13.50;99.90
58568;DHT22;44354;46.192;-1.076;2023-03-12T13:18:39;13.50;99.90
58568;DHT22;44354;46.192;-1.076;2023-03-12T13:21:14;13.60;99.90
58568;DHT22;44354;46.192;-1.076;2023-03-12T13:23:52;13.50;99.90
58568;DHT22;44354;46.192;-1.076;2023-03-12T13:26:31;13.40;99.90
58568;DHT22;44354;46.192;-1.076;2023-03-12T13:32:00;13.30;99.90
58568;DHT22;44354;46.192;-1.076;2023-03-12T13:34:41;13.20;99.90
58568;DHT22;44354;46.192;-1.076;2023-03-12T13:37:19;13.20;99.90
58568;DHT22;44354;46.192;-1.076;2023-03-12T13:40:01;13.10;99.90
58568;DHT22;44354;46.192;-1.076;2023-03-12T13:42:41;13.10;99.90
58568;DHT22;44354;46.192;-1.076;2023-03-12T13:45:23;13.10;99.90
58568;DHT22;44354;46.192;-1.076;2023-03-12T13:47:54;13.00;99.90
58568;DHT22;44354;46.192;-1.076;2023-03-12T13:50:23;13.10;99.90
58568;DHT22;44354;46.192;-1.076;2023-03-12T13:52:54;13.10;99.90
58568;DHT22;44354;46.192;-1.076;2023-03-12T13:55:24;13.20;99.90
58568;DHT22;44354;46.192;-1.076;2023-03-12T13:57:53;13.20;99.90
58568;DHT22;44354;46.192;-1.076;2023-03-12T14:00:24;13.10;99.90
58568;DHT22;44354;46.192;-1.076;2023-03-12T14:02:51;13.10;99.90
58568;DHT22;44354;46.192;-1.076;2023-03-12T14:05:22;13.10;99.90
58568;DHT22;44354;46.192;-1.076;2023-03-12T14:07:53;13.00;99.90
58568;DHT22;44354;46.192;-1.076;2023-03-12T14:10:36;12.90;99.90
58568;DHT22;44354;46.192;-1.076;2023-03-12T14:16:27;12.80;99.90
58568;DHT22;44354;46.192;-1.076;2023-03-12T14:19:04;12.70;99.90
58568;DHT22;44354;46.192;-1.076;2023-03-12T14:21:38;12.70;99.90
58568;DHT22;44354;46.192;-1.076;2023-03-12T14:24:06;12.70;99.90
58568;DHT22;44354;46.192;-1.076;2023-03-12T14:26:32;12.70;99.90
58568;DHT22;44354;46.192;-1.076;2023-03-12T14:29:00;12.70;99.90
58568;DHT22;44354;46.192;-1.076;2023-03-12T14:31:35;12.70;99.90
58568;DHT22;44354;46.192;-1.076;2023-03-12T14:43:27;12.60;99.90
58568;DHT22;44354;46.192;-1.076;2023-03-12T14:46:16;12.70;99.90
58568;DHT22;44354;46.192;-1.076;2023-03-12T14:51:56;12.70;99.90
58568;DHT22;44354;46.192;-1.076;2023-03-12T14:54:59;12.70;99.90
58568;DHT22;44354;46.192;-1.076;2023-03-12T14:57:30;12.80;99.90
58568;DHT22;44354;46.192;-1.076;2023-03-12T15:00:02;12.90;99.90
58568;DHT22;44354;46.192;-1.076;2023-03-12T15:02:47;12.90;99.90
58568;DHT22;44354;46.192;-1.076;2023-03-12T15:05:32;13.00;99.90
58568;DHT22;44354;46.192;-1.076;2023-03-12T15:08:19;13.00;99.90
58568;DHT22;44354;46.192;-1.076;2023-03-12T15:10:52;13.00;99.90
58568;DHT22;44354;46.192;-1.076;2023-03-12T15:16:31;13.10;99.90
58568;DHT22;44354;46.192;-1.076;2023-03-12T15:19:20;13.00;99.90
58568;DHT22;44354;46.192;-1.076;2023-03-12T15:21:53;13.00;99.90
58568;DHT22;44354;46.192;-1.076;2023-03-12T15:24:22;13.00;99.90
58568;DHT22;44354;46.192;-1.076;2023-03-12T15:26:57;13.00;99.90
58568;DHT22;44354;46.192;-1.076;2023-03-12T15:30:19;13.00;99.90
58568;DHT22;44354;46.192;-1.076;2023-03-12T15:53:31;12.70;99.90
58568;DHT22;44354;46.192;-1.076;2023-03-12T16:12:56;12.60;99.90
58568;DHT22;44354;46.192;-1.076;2023-03-12T16:15:25;12.60;99.90
58568;DHT22;44354;46.192;-1.076;2023-03-12T16:24:05;12.50;99.90
58568;DHT22;44354;46.192;-1.076;2023-03-12T16:26:41;12.50;99.90
58568;DHT22;44354;46.192;-1.076;2023-03-12T16:29:35;12.50;99.90
58568;DHT22;44354;46.192;-1.076;2023-03-12T16:32:01;12.50;99.90
58568;DHT22;44354;46.192;-1.076;2023-03-12T16:34:33;12.50;99.90
58568;DHT22;44354;46.192;-1.076;2023-03-12T16:37:26;12.50;99.90
58568;DHT22;44354;46.192;-1.076;2023-03-12T16:39:52;12.50;99.90
58568;DHT22;44354;46.192;-1.076;2023-03-12T16:42:20;12.50;99.90
58568;DHT22;44354;46.192;-1.076;2023-03-12T16:44:55;12.50;99.90
58568;DHT22;44354;46.192;-1.076;2023-03-12T16:51:01;12.40;99.90
58568;DHT22;44354;46.192;-1.076;2023-03-12T17:00:07;12.40;99.90
58568;DHT22;44354;46.192;-1.076;2023-03-12T17:02:50;12.40;99.90
58568;DHT22;44354;46.192;-1.076;2023-03-12T17:08:18;12.40;99.90
58568;DHT22;44354;46.192;-1.076;2023-03-12T17:16:23;12.50;99.90
58568;DHT22;44354;46.192;-1.076;2023-03-12T17:21:49;12.60;99.90
58568;DHT22;44354;46.192;-1.076;2023-03-12T17:24:17;12.60;99.90
58568;DHT22;44354;46.192;-1.076;2023-03-12T17:32:18;12.60;99.90
58568;DHT22;44354;46.192;-1.076;2023-03-12T17:35:25;12.70;99.90
58568;DHT22;44354;46.192;-1.076;2023-03-12T17:40:31;12.70;99.90
58568;DHT22;44354;46.192;-1.076;2023-03-12T17:43:21;12.70;99.90
58568;DHT22;44354;46.192;-1.076;2023-03-12T17:48:34;12.80;99.90
58568;DHT22;44354;46.192;-1.076;2023-03-12T17:51:09;12.80;99.90
58568;DHT22;44354;46.192;-1.076;2023-03-12T17:53:55;12.80;99.90
58568;DHT22;44354;46.192;-1.076;2023-03-12T17:59:19;12.80;99.90
58568;DHT22;44354;46.192;-1.076;2023-03-12T18:01:48;12.80;99.90
58568;DHT22;44354;46.192;-1.076;2023-03-12T18:04:15;12.80;99.90
58568;DHT22;44354;46.192;-1.076;2023-03-12T18:06:55;12.80;99.90
58568;DHT22;44354;46.192;-1.076;2023-03-12T18:09:24;12.70;99.90
58568;DHT22;44354;46.192;-1.076;2023-03-12T18:11:49;12.70;99.90
58568;DHT22;44354;46.192;-1.076;2023-03-12T18:14:17;12.70;99.90
58568;DHT22;44354;46.192;-1.076;2023-03-12T18:16:45;12.80;99.90
58568;DHT22;44354;46.192;-1.076;2023-03-12T18:19:11;12.80;99.90
58568;DHT22;44354;46.192;-1.076;2023-03-12T18:21:40;12.80;99.90